createdAt,value
2018-11-10T00:00:25.132Z,8.97
2018-11-10T00:02:55.267Z,8.96
2018-11-10T00:05:25.177Z,8.92
2018-11-10T00:07:54.847Z,8.92
2018-11-10T00:10:24.718Z,8.93
2018-11-10T00:12:54.481Z,8.93
2018-11-10T00:15:24.823Z,8.94
2018-11-10T00:17:54.077Z,8.94
2018-11-10T00:20:24.022Z,8.91
2018-11-10T00:22:54.608Z,8.90
2018-11-10T00:25:24.558Z,8.91
2018-11-10T00:27:55.072Z,8.92
2018-11-10T00:30:24.481Z,8.94
2018-11-10T00:32:54.207Z,8.97
2018-11-10T00:35:24.068Z,8.98
2018-11-10T00:37:56.602Z,8.98
2018-11-10T00:40:25.514Z,8.99
2018-11-10T00:42:56.437Z,8.99
2018-11-10T00:45:26.271Z,8.99
2018-11-10T00:47:57.533Z,8.99
2018-11-10T00:50:26.888Z,8.98
2018-11-10T00:52:56.483Z,8.97
2018-11-10T00:55:25.501Z,8.96
2018-11-10T00:57:55.899Z,8.95
2018-11-10T01:00:25.822Z,8.94
2018-11-10T01:02:56.058Z,8.96
2018-11-10T01:05:25.775Z,8.94
2018-11-10T01:07:55.842Z,8.90
2018-11-10T01:10:25.393Z,8.97
2018-11-10T01:12:56.069Z,9.01
2018-11-10T01:15:25.783Z,9.01
2018-11-10T01:17:56.898Z,9.00
2018-11-10T01:20:25.835Z,8.98
2018-11-10T01:22:55.925Z,8.98
2018-11-10T01:25:25.490Z,9.00
2018-11-10T01:27:55.416Z,9.01
2018-11-10T01:30:24.967Z,9.05
2018-11-10T01:32:55.382Z,9.08
2018-11-10T01:35:24.747Z,9.08
2018-11-10T01:37:54.866Z,9.07
2018-11-10T01:40:24.083Z,9.10
2018-11-10T01:42:55.006Z,9.09
2018-11-10T01:45:24.820Z,9.09
2018-11-10T01:47:59.389Z,9.12
2018-11-10T01:50:28.906Z,9.14
2018-11-10T01:52:58.848Z,9.13
2018-11-10T01:55:28.082Z,9.11
2018-11-10T01:57:57.707Z,9.09
2018-11-10T02:00:27.475Z,9.09
2018-11-10T02:02:57.534Z,9.12
2018-11-10T02:05:26.313Z,9.11
2018-11-10T02:07:55.492Z,9.09
2018-11-10T02:10:24.874Z,9.13
2018-11-10T02:12:55.108Z,9.09
2018-11-10T02:15:25.383Z,9.09
2018-11-10T02:17:54.836Z,9.11
2018-11-10T02:20:24.699Z,9.07
2018-11-10T02:22:55.166Z,9.04
2018-11-10T02:25:24.683Z,9.05
2018-11-10T02:27:53.882Z,9.05
2018-11-10T02:30:23.943Z,9.02
2018-11-10T02:32:53.452Z,9.00
2018-11-10T02:35:22.860Z,8.98
2018-11-10T02:37:53.619Z,8.96
2018-11-10T02:40:22.761Z,8.97
2018-11-10T02:42:53.623Z,8.99
2018-11-10T02:45:23.213Z,8.99
2018-11-10T02:47:52.907Z,9.03
2018-11-10T02:50:23.322Z,9.04
2018-11-10T02:52:54.139Z,9.07
2018-11-10T02:55:23.688Z,9.07
2018-11-10T02:57:53.770Z,9.13
2018-11-10T03:00:23.954Z,9.14
2018-11-10T03:02:54.076Z,9.16
2018-11-10T03:05:23.603Z,9.18
2018-11-10T03:07:52.830Z,9.20
2018-11-10T03:10:23.176Z,9.21
2018-11-10T03:12:52.870Z,9.21
2018-11-10T03:15:23.837Z,9.22
2018-11-10T03:17:52.815Z,9.22
2018-11-10T03:20:23.233Z,9.22
2018-11-10T03:22:52.736Z,9.22
2018-11-10T03:25:22.983Z,9.18
2018-11-10T03:27:52.510Z,9.19
2018-11-10T03:30:23.149Z,9.21
2018-11-10T03:32:53.430Z,9.21
2018-11-10T03:35:22.739Z,9.21
2018-11-10T03:37:52.954Z,9.22
2018-11-10T03:40:23.540Z,9.20
2018-11-10T03:42:53.802Z,9.25
2018-11-10T03:45:23.266Z,9.22
2018-11-10T03:47:52.718Z,9.22
2018-11-10T03:50:23.501Z,9.21
2018-11-10T03:52:53.403Z,9.19
2018-11-10T03:55:24.023Z,9.17
2018-11-10T03:57:54.115Z,9.16
2018-11-10T04:00:24.249Z,9.13
2018-11-10T04:02:54.722Z,9.13
2018-11-10T04:05:24.603Z,9.14
2018-11-10T04:07:53.789Z,9.13
2018-11-10T04:10:23.157Z,9.10
2018-11-10T04:12:53.039Z,9.08
2018-11-10T04:15:24.423Z,9.08
2018-11-10T04:17:54.025Z,9.08
2018-11-10T04:20:23.544Z,9.09
2018-11-10T04:22:54.124Z,9.08
2018-11-10T04:25:23.789Z,9.07
2018-11-10T04:27:52.891Z,9.08
2018-11-10T04:30:21.915Z,9.09
2018-11-10T04:32:50.733Z,9.11
2018-11-10T04:35:19.551Z,9.10
2018-11-10T04:37:48.991Z,9.11
2018-11-10T04:40:17.775Z,9.12
2018-11-10T04:42:46.969Z,9.14
2018-11-10T04:45:15.834Z,9.15
2018-11-10T04:47:45.494Z,9.15
2018-11-10T04:50:14.995Z,9.15
2018-11-10T04:52:43.825Z,9.17
2018-11-10T04:55:13.383Z,9.18
2018-11-10T04:57:43.130Z,9.19
2018-11-10T05:00:14.494Z,9.19
2018-11-10T05:02:44.848Z,9.20
2018-11-10T05:05:13.647Z,9.21
2018-11-10T05:07:42.476Z,9.20
2018-11-10T05:10:11.699Z,9.20
2018-11-10T05:12:41.408Z,9.19
2018-11-10T05:16:13.539Z,9.21
2018-11-10T05:18:42.392Z,9.16
2018-11-10T05:21:11.176Z,9.17
2018-11-10T05:23:42.236Z,9.15
2018-11-10T05:26:11.228Z,9.17
2018-11-10T05:28:40.075Z,9.19
2018-11-10T05:31:09.009Z,9.21
2018-11-10T05:33:37.793Z,9.20
2018-11-10T05:36:07.477Z,9.22
2018-11-10T05:38:36.265Z,9.22
2018-11-10T05:41:05.069Z,9.20
2018-11-10T05:43:34.610Z,9.18
2018-11-10T05:46:04.101Z,9.20
2018-11-10T05:48:32.912Z,9.19
2018-11-10T05:51:02.502Z,9.19
2018-11-10T05:53:32.101Z,9.17
2018-11-10T05:56:00.875Z,9.15
2018-11-10T05:58:30.559Z,9.15
2018-11-10T06:01:00.349Z,9.16
2018-11-10T06:03:29.130Z,9.18
2018-11-10T06:05:57.959Z,9.20
2018-11-10T06:08:26.784Z,9.17
2018-11-10T06:10:55.745Z,9.12
2018-11-10T06:13:26.053Z,9.12
2018-11-10T06:15:57.464Z,9.10
2018-11-10T06:18:26.320Z,9.10
2018-11-10T06:20:55.922Z,9.10
2018-11-10T06:23:25.274Z,9.12
2018-11-10T06:25:55.272Z,9.10
2018-11-10T06:28:25.573Z,9.11
2018-11-10T06:30:54.911Z,9.13
2018-11-10T06:33:24.483Z,9.13
2018-11-10T06:35:54.956Z,9.11
2018-11-10T06:38:24.963Z,9.08
2018-11-10T06:40:55.683Z,9.10
2018-11-10T06:43:25.345Z,9.10
2018-11-10T06:45:54.771Z,9.10
2018-11-10T06:48:24.096Z,9.14
2018-11-10T06:50:54.318Z,9.13
2018-11-10T06:53:24.230Z,9.14
2018-11-10T06:55:53.565Z,9.15
2018-11-10T06:58:24.039Z,9.11
2018-11-10T07:00:54.081Z,9.10
2018-11-10T07:03:24.153Z,9.10
2018-11-10T07:05:53.899Z,9.03
2018-11-10T07:08:23.605Z,9.11
2018-11-10T07:10:52.868Z,9.09
2018-11-10T07:13:24.277Z,9.09
2018-11-10T07:15:54.871Z,9.10
2018-11-10T07:18:24.835Z,9.11
2018-11-10T07:20:54.682Z,9.11
2018-11-10T07:23:24.650Z,9.13
2018-11-10T07:25:54.093Z,9.16
2018-11-10T07:28:23.708Z,9.17
2018-11-10T07:30:53.548Z,9.19
2018-11-10T07:33:23.034Z,9.19
2018-11-10T07:35:53.561Z,9.17
2018-11-10T07:38:24.177Z,9.16
2018-11-10T07:40:55.198Z,9.15
2018-11-10T07:43:25.482Z,9.11
2018-11-10T07:45:54.889Z,9.12
2018-11-10T07:48:24.438Z,9.11
2018-11-10T07:50:55.011Z,9.14
2018-11-10T07:53:24.866Z,9.15
2018-11-10T07:55:54.263Z,9.17
2018-11-10T07:58:24.931Z,9.17
2018-11-10T08:00:55.911Z,9.19
2018-11-10T08:03:25.335Z,9.20
2018-11-10T08:05:54.823Z,9.21
2018-11-10T08:08:24.756Z,9.21
2018-11-10T08:10:55.148Z,9.19
2018-11-10T08:13:25.587Z,9.20
2018-11-10T08:15:55.441Z,9.22
2018-11-10T08:18:24.940Z,9.20
2018-11-10T08:20:54.575Z,9.22
2018-11-10T08:23:23.986Z,9.27
2018-11-10T08:25:52.982Z,9.33
2018-11-10T08:28:22.597Z,9.39
2018-11-10T08:30:51.452Z,9.43
2018-11-10T08:33:20.253Z,9.47
2018-11-10T08:35:50.168Z,9.43
2018-11-10T08:38:19.546Z,9.42
2018-11-10T08:40:48.672Z,9.44
2018-11-10T08:43:18.155Z,9.44
2018-11-10T08:45:47.020Z,9.43
2018-11-10T08:48:15.771Z,9.40
2018-11-10T08:50:45.582Z,9.41
2018-11-10T08:53:14.402Z,9.44
2018-11-10T08:55:43.167Z,9.44
2018-11-10T08:58:12.676Z,9.42
2018-11-10T09:00:42.442Z,9.41
2018-11-10T09:03:11.527Z,9.42
2018-11-10T09:05:40.323Z,9.42
2018-11-10T09:08:09.058Z,9.40
2018-11-10T09:10:37.842Z,9.40
2018-11-10T09:13:07.485Z,9.40
2018-11-10T09:15:37.078Z,9.39
2018-11-10T09:18:06.027Z,9.38
2018-11-10T09:20:34.820Z,9.41
2018-11-10T09:23:03.692Z,9.43
2018-11-10T09:25:32.473Z,9.46
2018-11-10T09:28:01.427Z,9.47
2018-11-10T09:30:30.192Z,9.49
2018-11-10T09:32:58.986Z,9.51
2018-11-10T09:35:29.436Z,9.52
2018-11-10T09:37:59.444Z,9.55
2018-11-10T09:40:28.225Z,9.59
2018-11-10T09:42:58.240Z,9.61
2018-11-10T09:45:27.131Z,9.63
2018-11-10T09:47:55.935Z,9.62
2018-11-10T09:50:26.119Z,9.58
2018-11-10T09:52:55.714Z,9.55
2018-11-10T09:55:25.270Z,9.53
2018-11-10T09:57:55.526Z,9.54
2018-11-10T10:00:26.009Z,9.54
2018-11-10T10:02:55.887Z,9.57
2018-11-10T10:05:25.626Z,9.58
2018-11-10T10:07:54.999Z,9.61
2018-11-10T10:10:24.788Z,9.62
2018-11-10T10:12:55.231Z,9.68
2018-11-10T10:15:24.547Z,9.70
2018-11-10T10:17:53.652Z,9.67
2018-11-10T10:20:23.536Z,9.63
2018-11-10T10:22:54.322Z,9.61
2018-11-10T10:25:24.115Z,9.57
2018-11-10T10:27:54.078Z,9.59
2018-11-10T10:30:24.351Z,9.54
2018-11-10T10:32:54.663Z,9.57
2018-11-10T10:35:25.097Z,9.60
2018-11-10T10:37:55.528Z,9.61
2018-11-10T10:40:25.071Z,9.68
2018-11-10T10:42:54.945Z,9.71
2018-11-10T10:45:24.710Z,9.75
2018-11-10T10:47:54.624Z,9.76
2018-11-10T10:50:24.897Z,9.74
2018-11-10T10:52:54.180Z,9.72
2018-11-10T10:55:23.845Z,9.69
2018-11-10T10:57:53.916Z,9.69
2018-11-10T11:00:30.370Z,9.68
2018-11-10T11:03:04.855Z,9.67
2018-11-10T11:05:53.403Z,9.67
2018-11-10T11:08:22.788Z,9.69
2018-11-10T11:10:53.415Z,9.71
2018-11-10T11:13:24.027Z,9.74
2018-11-10T11:15:54.002Z,9.75
2018-11-10T11:18:23.406Z,9.79
2018-11-10T11:20:52.431Z,9.84
2018-11-10T11:23:21.284Z,9.88
2018-11-10T11:25:50.096Z,9.89
2018-11-10T11:28:19.255Z,9.89
2018-11-10T11:30:49.125Z,9.90
2018-11-10T11:33:18.007Z,9.92
2018-11-10T11:35:47.789Z,9.93
2018-11-10T11:38:16.547Z,9.92
2018-11-10T11:40:45.349Z,9.91
2018-11-10T11:43:15.256Z,9.89
2018-11-10T11:45:44.871Z,9.89
2018-11-10T11:48:13.655Z,9.92
2018-11-10T11:50:43.131Z,9.93
2018-11-10T11:53:12.515Z,9.91
2018-11-10T11:55:41.351Z,9.89
2018-11-10T11:58:11.226Z,9.90
2018-11-10T12:00:40.701Z,9.92
2018-11-10T12:03:09.520Z,9.97
2018-11-10T12:05:38.648Z,9.99
2018-11-10T12:08:07.464Z,9.94
2018-11-10T12:10:36.223Z,9.95
2018-11-10T12:13:05.711Z,9.95
2018-11-10T12:15:34.705Z,9.94
2018-11-10T12:18:03.735Z,9.96
2018-11-10T12:20:32.559Z,9.93
2018-11-10T12:23:01.386Z,9.91
2018-11-10T12:25:30.414Z,9.84
2018-11-10T12:27:59.771Z,9.86
2018-11-10T12:30:29.203Z,9.87
2018-11-10T12:32:58.052Z,9.86
2018-11-10T12:35:26.843Z,9.82
2018-11-10T12:37:56.534Z,9.78
2018-11-10T12:40:25.954Z,9.75
2018-11-10T12:42:56.369Z,9.75
2018-11-10T12:45:26.395Z,9.80
2018-11-10T12:47:56.121Z,9.81
2018-11-10T12:50:25.935Z,9.80
2018-11-10T12:52:55.505Z,9.79
2018-11-10T12:55:25.492Z,9.75
2018-11-10T12:57:55.683Z,9.76
2018-11-10T13:00:26.258Z,9.75
2018-11-10T13:02:56.031Z,9.76
2018-11-10T13:05:25.394Z,9.74
2018-11-10T13:07:55.135Z,9.75
2018-11-10T13:10:24.814Z,9.77
2018-11-10T13:12:54.992Z,9.75
2018-11-10T13:15:24.405Z,9.75
2018-11-10T13:17:54.262Z,9.76
2018-11-10T13:20:23.543Z,9.75
2018-11-10T13:22:54.064Z,9.72
2018-11-10T13:25:24.140Z,9.71
2018-11-10T13:27:55.225Z,9.71
2018-11-10T13:30:25.196Z,9.70
2018-11-10T13:32:54.881Z,9.64
2018-11-10T13:35:24.348Z,9.64
2018-11-10T13:37:54.739Z,9.62
2018-11-10T13:40:24.114Z,9.61
2018-11-10T13:42:54.225Z,9.62
2018-11-10T13:45:24.471Z,9.61
2018-11-10T13:47:54.387Z,9.65
2018-11-10T13:50:24.186Z,9.62
2018-11-10T13:52:54.392Z,9.60
2018-11-10T13:55:24.189Z,9.60
2018-11-10T13:57:54.661Z,9.59
2018-11-10T14:00:24.864Z,9.61
2018-11-10T14:02:55.253Z,9.65
2018-11-10T14:05:25.237Z,9.70
2018-11-10T14:07:55.254Z,9.71
2018-11-10T14:10:25.037Z,9.73
2018-11-10T14:12:56.015Z,9.77
2018-11-10T14:15:25.677Z,9.79
2018-11-10T14:17:56.668Z,9.79
2018-11-10T14:20:25.498Z,9.79
2018-11-10T14:22:55.393Z,9.79
2018-11-10T14:25:25.415Z,9.80
2018-11-10T14:27:56.432Z,9.75
2018-11-10T14:30:26.137Z,9.77
2018-11-10T14:32:55.526Z,9.75
2018-11-10T14:35:26.025Z,9.76
2018-11-10T14:37:56.577Z,9.77
2018-11-10T14:40:25.691Z,9.79
2018-11-10T14:43:58.953Z,9.80
2018-11-10T14:46:28.231Z,9.80
2018-11-10T14:48:58.218Z,9.78
2018-11-10T14:51:27.668Z,9.79
2018-11-10T14:53:57.027Z,9.81
2018-11-10T14:56:25.879Z,9.81
2018-11-10T14:58:56.520Z,9.79
2018-11-10T15:01:27.203Z,9.78
2018-11-10T15:03:56.554Z,9.78
2018-11-10T15:06:25.547Z,9.77
2018-11-10T15:08:54.969Z,9.80
2018-11-10T15:11:24.463Z,9.81
2018-11-10T15:13:54.834Z,9.84
2018-11-10T15:16:24.844Z,9.86
2018-11-10T15:18:54.171Z,9.87
2018-11-10T15:21:24.340Z,9.86
2018-11-10T15:23:53.666Z,9.85
2018-11-10T15:26:23.969Z,9.86
2018-11-10T15:28:53.700Z,9.84
2018-11-10T15:31:23.829Z,9.87
2018-11-10T15:33:52.991Z,9.90
2018-11-10T15:36:24.293Z,9.90
2018-11-10T15:38:53.501Z,9.92
2018-11-10T15:41:23.651Z,9.91
2018-11-10T15:43:53.526Z,9.91
2018-11-10T15:46:23.061Z,9.92
2018-11-10T15:48:52.874Z,9.93
2018-11-10T15:51:23.432Z,9.90
2018-11-10T15:53:53.359Z,9.91
2018-11-10T15:56:24.154Z,9.87
2018-11-10T15:58:57.478Z,9.85
2018-11-10T16:01:26.771Z,9.80
2018-11-10T16:03:57.430Z,9.76
2018-11-10T16:06:26.282Z,9.71
2018-11-10T16:08:55.625Z,9.67
2018-11-10T16:11:25.703Z,9.66
2018-11-10T16:14:00.865Z,9.68
2018-11-10T16:16:29.782Z,9.69
2018-11-10T16:18:59.368Z,9.74
2018-11-10T16:21:28.174Z,9.75
2018-11-10T16:23:57.245Z,9.73
2018-11-10T16:26:26.092Z,9.70
2018-11-10T16:28:56.431Z,9.69
2018-11-10T16:31:25.939Z,9.64
2018-11-10T16:33:57.259Z,9.63
2018-11-10T16:36:26.874Z,9.65
2018-11-10T16:38:55.729Z,9.64
2018-11-10T16:41:25.139Z,9.65
2018-11-10T16:43:55.518Z,9.68
2018-11-10T16:46:25.527Z,9.69
2018-11-10T16:48:55.779Z,9.73
2018-11-10T16:51:26.054Z,9.73
2018-11-10T16:53:56.667Z,9.74
2018-11-10T16:56:25.466Z,9.74
2018-11-10T16:58:55.246Z,9.73
2018-11-10T17:01:25.351Z,9.71
2018-11-10T17:03:55.287Z,9.70
2018-11-10T17:06:24.734Z,9.67
2018-11-10T17:08:54.041Z,9.67
2018-11-10T17:11:22.921Z,9.67
2018-11-10T17:13:53.493Z,9.70
2018-11-10T17:16:23.931Z,9.71
2018-11-10T17:18:53.542Z,9.73
2018-11-10T17:21:23.049Z,9.72
2018-11-10T17:23:52.576Z,9.75
2018-11-10T17:26:23.290Z,9.76
2018-11-10T17:28:52.891Z,9.77
2018-11-10T17:31:21.973Z,9.78
2018-11-10T17:33:50.843Z,9.81
2018-11-10T17:36:20.500Z,9.82
2018-11-10T17:38:49.376Z,9.80
2018-11-10T17:41:18.155Z,9.79
2018-11-10T17:43:48.159Z,9.80
2018-11-10T17:46:17.030Z,9.83
2018-11-10T17:48:45.831Z,9.86
2018-11-10T17:51:15.422Z,9.88
2018-11-10T17:53:45.003Z,9.87
2018-11-10T17:56:13.827Z,9.86
2018-11-10T17:58:43.311Z,9.88
2018-11-10T18:01:13.501Z,9.89
2018-11-10T18:03:42.311Z,9.91
2018-11-10T18:06:11.122Z,9.91
2018-11-10T18:08:39.946Z,9.92
2018-11-10T18:11:09.433Z,9.93
2018-11-10T18:13:38.866Z,9.95
2018-11-10T18:16:08.181Z,9.91
2018-11-10T18:18:42.789Z,9.91
2018-11-10T18:21:11.889Z,9.93
2018-11-10T18:23:40.703Z,9.93
2018-11-10T18:26:09.638Z,9.94
2018-11-10T18:28:38.499Z,9.96
2018-11-10T18:31:07.497Z,10.00
2018-11-10T18:33:36.884Z,10.03
2018-11-10T18:36:06.582Z,10.03
2018-11-10T18:38:35.409Z,10.03
2018-11-10T18:41:04.368Z,10.03
2018-11-10T18:43:33.938Z,10.04
2018-11-10T18:46:03.355Z,9.99
2018-11-10T18:48:32.168Z,9.99
2018-11-10T18:51:01.697Z,9.96
2018-11-10T18:53:30.459Z,9.93
2018-11-10T18:56:00.175Z,9.89
2018-11-10T18:58:29.684Z,9.89
2018-11-10T19:00:59.097Z,9.89
2018-11-10T19:03:28.559Z,9.88
2018-11-10T19:05:59.434Z,9.90
2018-11-10T19:08:29.012Z,9.88
2018-11-10T19:10:57.947Z,9.79
2018-11-10T19:13:27.263Z,9.86
2018-11-10T19:15:56.179Z,9.85
2018-11-10T19:18:25.950Z,9.83
2018-11-10T19:20:57.428Z,9.79
2018-11-10T19:23:26.359Z,9.82
2018-11-10T19:25:56.553Z,9.83
2018-11-10T19:28:25.484Z,9.83
2018-11-10T19:30:55.640Z,9.80
2018-11-10T19:33:25.975Z,9.80
2018-11-10T19:35:58.687Z,9.80
2018-11-10T19:38:29.293Z,9.82
2018-11-10T19:40:58.108Z,9.81
2018-11-10T19:43:27.616Z,9.83
2018-11-10T19:45:57.983Z,9.84
2018-11-10T19:48:26.791Z,9.80
2018-11-10T19:50:56.467Z,9.75
2018-11-10T19:53:56.576Z,9.77
2018-11-10T19:56:25.395Z,9.73
2018-11-10T19:58:57.410Z,9.73
2018-11-10T20:01:26.969Z,9.70
2018-11-10T20:03:55.795Z,9.68
2018-11-10T20:06:25.454Z,9.64
2018-11-10T20:08:55.601Z,9.59
2018-11-10T20:11:26.019Z,9.58
2018-11-10T20:13:56.490Z,9.58
2018-11-10T20:16:25.393Z,9.59
2018-11-10T20:18:54.979Z,9.59
2018-11-10T20:21:25.574Z,9.60
2018-11-10T20:23:55.062Z,9.63
2018-11-10T20:26:24.155Z,9.64
2018-11-10T20:28:53.816Z,9.69
2018-11-10T20:31:22.998Z,9.73
2018-11-10T20:33:52.960Z,9.75
2018-11-10T20:36:22.519Z,9.75
2018-11-10T20:38:54.662Z,9.77
2018-11-10T20:41:23.984Z,9.74
2018-11-10T20:43:54.432Z,9.74
2018-11-10T20:46:23.504Z,9.72
2018-11-10T20:48:52.929Z,9.72
2018-11-10T20:51:23.439Z,9.70
2018-11-10T20:53:55.020Z,9.66
2018-11-10T20:56:24.389Z,9.63
2018-11-10T20:58:54.757Z,9.64
2018-11-10T21:01:25.370Z,9.62
2018-11-10T21:03:55.154Z,9.62
2018-11-10T21:06:24.900Z,9.60
2018-11-10T21:08:56.447Z,9.63
2018-11-10T21:11:25.491Z,9.64
2018-11-10T21:13:55.442Z,9.62
2018-11-10T21:16:24.822Z,9.59
2018-11-10T21:18:54.603Z,9.58
2018-11-10T21:21:24.916Z,9.55
2018-11-10T21:23:55.305Z,9.58
2018-11-10T21:26:24.775Z,9.57
2018-11-10T21:28:54.416Z,9.55
2018-11-10T21:31:23.761Z,9.56
2018-11-10T21:33:53.798Z,9.54
2018-11-10T21:36:24.359Z,9.56
2018-11-10T21:38:54.271Z,9.59
2018-11-10T21:41:23.430Z,9.59
2018-11-10T21:43:53.394Z,9.62
2018-11-10T21:46:23.362Z,9.60
2018-11-10T21:48:53.032Z,9.59
2018-11-10T21:51:23.516Z,9.61
2018-11-10T21:53:53.482Z,9.63
2018-11-10T21:56:22.699Z,9.61
2018-11-10T21:58:52.884Z,9.63
2018-11-10T22:01:23.087Z,9.68
2018-11-10T22:03:52.608Z,9.67
2018-11-10T22:06:22.928Z,9.65
2018-11-10T22:08:52.903Z,9.65
2018-11-10T22:11:21.759Z,9.64
2018-11-10T22:13:51.704Z,9.67
2018-11-10T22:16:20.523Z,9.67
2018-11-10T22:18:49.388Z,9.69
2018-11-10T22:21:19.216Z,9.71
2018-11-10T22:23:48.018Z,9.70
2018-11-10T22:26:16.796Z,9.69
2018-11-10T22:28:45.879Z,9.70
2018-11-10T22:31:14.849Z,9.69
2018-11-10T22:33:43.686Z,9.69
2018-11-10T22:36:12.476Z,9.70
2018-11-10T22:38:41.316Z,9.69
2018-11-10T22:41:10.073Z,9.70
2018-11-10T22:43:40.107Z,9.75
2018-11-10T22:46:09.492Z,9.74
2018-11-10T22:48:38.946Z,9.73
2018-11-10T22:51:08.521Z,9.73
2018-11-10T22:53:38.292Z,9.74
2018-11-10T22:56:07.087Z,9.74
2018-11-10T22:58:36.619Z,9.73
2018-11-10T23:01:08.034Z,9.71
2018-11-10T23:03:38.392Z,9.69
2018-11-10T23:06:08.106Z,9.69
2018-11-10T23:08:37.011Z,9.70
2018-11-10T23:11:06.238Z,9.73
2018-11-10T23:13:37.373Z,9.75
2018-11-10T23:16:06.579Z,9.77
2018-11-10T23:18:36.392Z,9.79
2018-11-10T23:21:06.896Z,9.80
2018-11-10T23:23:35.740Z,9.82
2018-11-10T23:26:04.493Z,9.81
2018-11-10T23:28:33.291Z,9.81
2018-11-10T23:31:02.156Z,9.83
2018-11-10T23:33:31.041Z,9.83
2018-11-10T23:35:59.864Z,9.85
2018-11-10T23:38:28.700Z,9.86
2018-11-10T23:40:57.507Z,9.84
2018-11-10T23:43:27.171Z,9.85
2018-11-10T23:46:02.519Z,9.88
2018-11-10T23:48:31.413Z,9.91
2018-11-10T23:51:00.978Z,9.94
2018-11-10T23:53:29.833Z,9.93
2018-11-10T23:55:59.632Z,9.98
2018-11-10T23:58:29.035Z,10.01
